createdAt,value
2023-04-07T00:01:42.508Z,9.00
2023-04-07T00:04:10.034Z,9.00
2023-04-07T00:06:37.213Z,9.00
2023-04-07T00:09:04.235Z,9.00
2023-04-07T00:11:31.566Z,9.00
2023-04-07T00:13:58.475Z,8.90
2023-04-07T00:16:25.480Z,8.90
2023-04-07T00:18:52.498Z,8.90
2023-04-07T00:21:19.538Z,8.90
2023-04-07T00:23:47.662Z,8.90
2023-04-07T00:26:14.710Z,8.90
2023-04-07T00:28:42.217Z,8.90
2023-04-07T00:31:09.284Z,8.90
2023-04-07T00:33:36.298Z,8.90
2023-04-07T00:36:03.236Z,8.90
2023-04-07T00:38:30.639Z,8.90
2023-04-07T00:40:59.567Z,8.90
2023-04-07T00:43:27.523Z,9.00
2023-04-07T00:45:56.623Z,8.90
2023-04-07T00:48:23.777Z,9.00
2023-04-07T00:50:51.274Z,9.00
2023-04-07T00:53:18.378Z,9.00
2023-04-07T00:55:45.708Z,9.00
2023-04-07T00:58:12.830Z,9.00
2023-04-07T01:01:23.747Z,9.00
2023-04-07T01:04:19.590Z,9.00
2023-04-07T01:06:51.376Z,9.00
2023-04-07T01:09:30.860Z,9.00
2023-04-07T01:12:37.280Z,9.00
2023-04-07T01:15:12.938Z,9.00
2023-04-07T01:17:46.669Z,8.90
2023-04-07T01:20:21.578Z,8.90
2023-04-07T01:22:56.238Z,8.90
2023-04-07T01:26:04.784Z,8.90
2023-04-07T01:29:05.477Z,8.90
2023-04-07T01:31:33.534Z,8.90
2023-04-07T01:34:02.214Z,8.80
2023-04-07T01:36:32.146Z,8.80
2023-04-07T01:39:00.364Z,8.80
2023-04-07T01:41:28.155Z,8.80
2023-04-07T01:43:56.766Z,8.80
2023-04-07T01:46:23.811Z,8.80
2023-04-07T01:48:51.762Z,8.80
2023-04-07T01:51:21.823Z,8.70
2023-04-07T01:53:49.832Z,8.70
2023-04-07T01:56:17.065Z,8.70
2023-04-07T01:58:44.160Z,8.70
2023-04-07T02:01:12.060Z,8.70
2023-04-07T02:03:51.390Z,8.70
2023-04-07T02:06:23.275Z,8.70
2023-04-07T02:08:57.532Z,8.60
2023-04-07T02:11:27.381Z,8.60
2023-04-07T02:13:55.974Z,8.60
2023-04-07T02:16:23.342Z,8.60
2023-04-07T02:18:51.005Z,8.60
2023-04-07T02:21:19.486Z,8.50
2023-04-07T02:23:47.228Z,8.50
2023-04-07T02:26:14.287Z,8.60
2023-04-07T02:28:41.358Z,8.60
2023-04-07T02:31:08.572Z,8.60
2023-04-07T02:33:35.751Z,8.60
2023-04-07T02:36:02.755Z,8.60
2023-04-07T02:38:29.737Z,8.50
2023-04-07T02:40:56.699Z,8.50
2023-04-07T02:43:25.338Z,8.50
2023-04-07T02:45:52.379Z,8.50
2023-04-07T02:48:19.407Z,8.50
2023-04-07T02:50:46.324Z,8.50
2023-04-07T02:53:13.228Z,8.50
2023-04-07T02:55:40.285Z,8.40
2023-04-07T02:58:07.223Z,8.40
2023-04-07T03:00:35.016Z,8.40
2023-04-07T03:03:02.179Z,8.40
2023-04-07T03:05:29.379Z,8.40
2023-04-07T03:07:56.438Z,8.40
2023-04-07T03:10:23.619Z,8.30
2023-04-07T03:12:50.589Z,8.40
2023-04-07T03:15:18.902Z,8.30
2023-04-07T03:17:46.179Z,8.20
2023-04-07T03:20:13.299Z,8.20
2023-04-07T03:22:41.036Z,8.20
2023-04-07T03:25:08.712Z,8.10
2023-04-07T03:27:35.821Z,8.10
2023-04-07T03:30:04.670Z,8.10
2023-04-07T03:32:31.681Z,8.00
2023-04-07T03:34:58.668Z,8.00
2023-04-07T03:37:25.945Z,8.00
2023-04-07T03:39:52.998Z,8.00
2023-04-07T03:42:19.916Z,8.00
2023-04-07T03:44:47.325Z,8.00
2023-04-07T03:47:14.235Z,8.00
2023-04-07T03:49:41.437Z,7.90
2023-04-07T03:52:08.410Z,7.90
2023-04-07T03:54:35.503Z,7.90
2023-04-07T03:57:02.906Z,8.00
2023-04-07T03:59:30.050Z,8.00
2023-04-07T04:01:57.126Z,8.00
2023-04-07T04:04:24.723Z,7.90
2023-04-07T04:06:51.932Z,7.90
2023-04-07T04:09:19.031Z,7.90
2023-04-07T04:11:46.560Z,7.90
2023-04-07T04:14:13.485Z,7.90
2023-04-07T04:16:40.571Z,7.90
2023-04-07T04:19:07.518Z,7.90
2023-04-07T04:21:34.571Z,7.80
2023-04-07T04:24:01.755Z,7.80
2023-04-07T04:26:29.824Z,7.80
2023-04-07T04:28:56.852Z,7.80
2023-04-07T04:31:23.955Z,7.80
2023-04-07T04:33:51.080Z,7.80
2023-04-07T04:36:18.073Z,7.80
2023-04-07T04:38:45.379Z,7.70
2023-04-07T04:41:12.282Z,7.70
2023-04-07T04:43:39.254Z,7.70
2023-04-07T04:46:06.271Z,7.60
2023-04-07T04:48:33.200Z,7.60
2023-04-07T04:51:00.250Z,7.60
2023-04-07T04:53:27.664Z,7.60
2023-04-07T04:55:54.764Z,7.60
2023-04-07T04:58:21.972Z,7.50
2023-04-07T05:00:49.054Z,7.50
2023-04-07T05:03:16.350Z,7.50
2023-04-07T05:05:43.959Z,7.40
2023-04-07T05:08:11.762Z,7.40
2023-04-07T05:10:40.210Z,7.40
2023-04-07T05:13:07.159Z,7.30
2023-04-07T05:15:34.196Z,7.30
2023-04-07T05:18:01.326Z,7.30
2023-04-07T05:20:28.327Z,7.30
2023-04-07T05:22:55.320Z,7.30
2023-04-07T05:25:22.342Z,7.20
2023-04-07T05:27:49.340Z,7.20
2023-04-07T05:30:16.684Z,7.20
2023-04-07T05:32:43.717Z,7.20
2023-04-07T05:35:10.944Z,7.20
2023-04-07T05:37:38.013Z,7.20
2023-04-07T05:40:05.702Z,7.30
2023-04-07T05:42:32.626Z,7.40
2023-04-07T05:44:59.628Z,7.40
2023-04-07T05:47:26.691Z,7.50
2023-04-07T05:49:53.848Z,7.60
2023-04-07T05:52:20.857Z,7.80
2023-04-07T05:54:48.088Z,7.90
2023-04-07T05:57:15.120Z,8.00
2023-04-07T05:59:42.135Z,8.10
2023-04-07T06:02:09.109Z,8.20
2023-04-07T06:04:36.577Z,8.20
2023-04-07T06:07:04.355Z,8.30
2023-04-07T06:09:31.424Z,8.40
2023-04-07T06:11:58.940Z,8.40
2023-04-07T06:14:26.094Z,8.40
2023-04-07T06:16:53.209Z,8.50
2023-04-07T06:19:20.134Z,8.70
2023-04-07T06:21:47.041Z,8.80
2023-04-07T06:24:14.006Z,8.90
2023-04-07T06:26:41.377Z,9.00
2023-04-07T06:29:08.342Z,9.10
2023-04-07T06:31:35.539Z,9.10
2023-04-07T06:34:02.468Z,9.20
2023-04-07T06:36:29.881Z,9.30
2023-04-07T06:38:57.081Z,9.50
2023-04-07T06:41:24.001Z,9.60
2023-04-07T06:43:51.497Z,9.70
2023-04-07T06:46:19.647Z,9.80
2023-04-07T06:48:46.842Z,9.80
2023-04-07T06:51:13.890Z,9.90
2023-04-07T06:53:41.908Z,9.90
2023-04-07T06:56:12.304Z,10.00
2023-04-07T06:58:39.293Z,10.00
2023-04-07T07:01:06.787Z,10.10
2023-04-07T07:03:34.518Z,10.10
2023-04-07T07:06:02.070Z,10.10
2023-04-07T07:08:29.759Z,10.00
2023-04-07T07:10:57.106Z,10.00
2023-04-07T07:13:26.598Z,10.00
2023-04-07T07:15:53.797Z,10.00
2023-04-07T07:18:20.936Z,10.00
2023-04-07T07:20:47.922Z,10.00
2023-04-07T07:23:14.841Z,10.00
2023-04-07T07:25:41.813Z,10.00
2023-04-07T07:28:09.697Z,10.00
2023-04-07T07:30:39.575Z,10.10
2023-04-07T07:33:06.562Z,10.10
2023-04-07T07:35:33.712Z,10.30
2023-04-07T07:38:01.699Z,10.40
2023-04-07T07:40:28.654Z,10.60
2023-04-07T07:42:55.960Z,10.70
2023-04-07T07:45:22.998Z,10.80
2023-04-07T07:47:50.027Z,10.80
2023-04-07T07:50:17.114Z,10.80
2023-04-07T07:52:44.437Z,10.80
2023-04-07T07:55:11.614Z,10.70
2023-04-07T07:57:38.505Z,10.50
2023-04-07T08:00:06.495Z,10.50
2023-04-07T08:02:34.075Z,10.40
2023-04-07T08:05:01.250Z,10.40
2023-04-07T08:07:28.342Z,10.40
2023-04-07T08:09:55.289Z,10.50
2023-04-07T08:12:22.490Z,10.40
2023-04-07T08:14:50.132Z,10.30
2023-04-07T08:17:17.361Z,10.20
2023-04-07T08:19:44.324Z,10.20
2023-04-07T08:22:11.234Z,10.20
2023-04-07T08:24:38.144Z,10.30
2023-04-07T08:27:05.124Z,10.40
2023-04-07T08:29:32.456Z,10.50
2023-04-07T08:31:59.642Z,10.70
2023-04-07T08:34:26.654Z,10.90
2023-04-07T08:36:53.642Z,11.00
2023-04-07T08:39:20.638Z,11.10
2023-04-07T08:41:49.042Z,11.30
2023-04-07T08:44:16.574Z,11.30
2023-04-07T08:46:44.744Z,11.30
2023-04-07T08:49:14.231Z,11.40
2023-04-07T08:51:49.866Z,11.50
2023-04-07T08:54:19.053Z,11.60
2023-04-07T08:56:46.272Z,11.70
2023-04-07T08:59:16.182Z,11.80
2023-04-07T09:01:43.232Z,11.80
2023-04-07T09:04:11.028Z,11.80
2023-04-07T09:06:38.868Z,11.70
2023-04-07T09:09:06.326Z,11.60
2023-04-07T09:11:38.911Z,11.60
2023-04-07T09:14:06.135Z,11.40
2023-04-07T09:16:33.530Z,11.20
2023-04-07T09:19:00.771Z,11.20
2023-04-07T09:21:47.407Z,11.00
2023-04-07T09:24:27.247Z,11.00
2023-04-07T09:27:17.642Z,11.10
2023-04-07T09:29:47.494Z,11.10
2023-04-07T09:32:41.505Z,11.20
2023-04-07T09:35:09.439Z,11.20
2023-04-07T09:37:37.316Z,11.20
2023-04-07T09:40:05.042Z,11.20
2023-04-07T09:42:34.585Z,11.50
2023-04-07T09:45:02.242Z,11.80
2023-04-07T09:47:32.749Z,12.00
2023-04-07T09:50:06.589Z,12.30
2023-04-07T09:52:54.584Z,12.70
2023-04-07T09:55:23.223Z,13.20
2023-04-07T09:57:55.555Z,13.60
2023-04-07T10:00:23.359Z,13.60
2023-04-07T10:02:51.498Z,13.30
2023-04-07T10:05:21.185Z,13.10
2023-04-07T10:07:48.578Z,13.10
2023-04-07T10:10:16.203Z,12.90
2023-04-07T10:12:44.577Z,12.80
2023-04-07T10:15:15.946Z,12.40
2023-04-07T10:17:50.070Z,12.20
2023-04-07T10:20:21.098Z,12.30
2023-04-07T10:22:53.919Z,12.10
2023-04-07T10:25:24.648Z,12.00
2023-04-07T10:27:56.721Z,11.90
2023-04-07T10:30:31.057Z,11.70
2023-04-07T10:32:59.237Z,12.00
2023-04-07T10:35:26.385Z,12.50
2023-04-07T10:38:09.000Z,13.10
2023-04-07T10:40:37.608Z,13.60
2023-04-07T10:43:09.714Z,13.90
2023-04-07T10:45:49.107Z,14.30
2023-04-07T10:48:18.208Z,15.00
2023-04-07T10:50:46.936Z,15.50
2023-04-07T10:53:15.685Z,15.90
2023-04-07T10:55:45.070Z,16.20
2023-04-07T10:58:17.485Z,15.80
2023-04-07T11:01:04.879Z,15.20
2023-04-07T11:03:38.248Z,14.20
2023-04-07T11:06:15.825Z,13.10
2023-04-07T11:08:48.965Z,12.50
2023-04-07T11:11:39.905Z,12.00
2023-04-07T11:14:07.202Z,11.80
2023-04-07T11:16:43.414Z,11.70
2023-04-07T11:19:10.705Z,11.70
2023-04-07T11:21:38.041Z,11.60
2023-04-07T11:24:05.716Z,11.70
2023-04-07T11:26:41.736Z,11.80
2023-04-07T11:29:20.407Z,11.80
2023-04-07T11:31:50.656Z,12.00
2023-04-07T11:35:20.591Z,12.20
2023-04-07T11:37:22.156Z,12.50
2023-04-07T11:42:53.114Z,13.10
2023-04-07T11:45:22.342Z,13.10
2023-04-07T11:47:50.979Z,13.30
2023-04-07T11:51:35.358Z,13.30
2023-04-07T11:54:02.444Z,13.70
2023-04-07T11:56:30.650Z,13.90
2023-04-07T11:58:58.248Z,14.00
2023-04-07T12:01:42.018Z,14.00
2023-04-07T12:04:20.531Z,14.00
2023-04-07T12:06:53.947Z,14.10
2023-04-07T12:09:36.332Z,13.90
2023-04-07T12:12:11.642Z,13.80
2023-04-07T12:14:48.688Z,13.50
2023-04-07T12:17:24.097Z,13.00
2023-04-07T12:19:51.324Z,12.60
2023-04-07T12:22:18.643Z,12.50
2023-04-07T12:24:51.103Z,12.10
2023-04-07T12:27:26.737Z,11.90
2023-04-07T12:30:09.381Z,11.80
2023-04-07T12:33:36.770Z,11.70
2023-04-07T12:38:56.630Z,11.80
2023-04-07T12:41:25.144Z,11.90
2023-04-07T12:43:57.452Z,12.00
2023-04-07T12:46:24.721Z,12.20
2023-04-07T12:48:51.958Z,12.30
2023-04-07T12:51:20.045Z,12.20
2023-04-07T12:53:50.596Z,12.10
2023-04-07T12:56:23.330Z,12.10
2023-04-07T12:58:50.509Z,12.30
2023-04-07T13:01:27.204Z,12.30
2023-04-07T13:04:07.984Z,12.10
2023-04-07T13:06:35.255Z,11.90
2023-04-07T13:09:02.387Z,11.80
2023-04-07T13:11:29.470Z,11.80
2023-04-07T13:13:58.550Z,11.60
2023-04-07T13:16:27.032Z,11.40
2023-04-07T13:19:00.575Z,11.40
2023-04-07T13:21:45.558Z,11.20
2023-04-07T13:27:19.216Z,11.30
2023-04-07T13:29:56.564Z,11.40
2023-04-07T13:32:33.815Z,11.50
2023-04-07T13:35:13.706Z,11.40
2023-04-07T13:38:16.711Z,11.40
2023-04-07T13:40:52.244Z,11.20
2023-04-07T13:43:28.415Z,11.10
2023-04-07T13:46:30.292Z,10.90
2023-04-07T13:49:02.463Z,10.80
2023-04-07T13:51:29.864Z,10.80
2023-04-07T13:54:00.337Z,10.90
2023-04-07T13:56:31.052Z,11.10
2023-04-07T13:59:12.682Z,11.20
2023-04-07T14:01:42.993Z,11.40
2023-04-07T14:04:30.953Z,11.50
2023-04-07T14:07:01.079Z,11.60
2023-04-07T14:09:34.032Z,11.60
2023-04-07T14:12:01.136Z,11.50
2023-04-07T14:14:28.158Z,11.50
2023-04-07T14:17:00.446Z,11.50
2023-04-07T14:19:27.482Z,11.40
2023-04-07T14:21:54.531Z,11.40
2023-04-07T14:24:21.912Z,11.40
2023-04-07T14:26:50.995Z,11.50
2023-04-07T14:29:18.070Z,11.60
2023-04-07T14:31:46.259Z,11.60
2023-04-07T14:34:13.300Z,11.60
2023-04-07T14:36:40.437Z,11.50
2023-04-07T14:39:07.441Z,11.40
2023-04-07T14:41:34.446Z,11.30
2023-04-07T14:44:01.553Z,11.30
2023-04-07T14:46:28.932Z,11.20
2023-04-07T14:48:58.685Z,11.10
2023-04-07T14:51:25.668Z,11.10
2023-04-07T14:53:56.107Z,11.00
2023-04-07T14:56:24.848Z,11.00
2023-04-07T14:58:52.054Z,11.00
2023-04-07T15:01:20.346Z,11.00
2023-04-07T15:03:47.769Z,10.90
2023-04-07T15:06:16.761Z,10.70
2023-04-07T15:08:43.782Z,10.60
2023-04-07T15:11:10.890Z,10.40
2023-04-07T15:13:37.890Z,10.30
2023-04-07T15:16:13.232Z,10.20
2023-04-07T15:18:44.522Z,10.10
2023-04-07T15:21:12.533Z,10.10
2023-04-07T15:23:42.230Z,10.10
2023-04-07T15:26:10.118Z,10.10
2023-04-07T15:28:38.197Z,10.10
2023-04-07T15:31:09.973Z,10.20
2023-04-07T15:33:39.969Z,10.20
2023-04-07T15:36:09.033Z,10.20
2023-04-07T15:38:36.651Z,10.40
2023-04-07T15:41:03.657Z,10.50
2023-04-07T15:43:30.713Z,10.50
2023-04-07T15:45:57.625Z,10.50
2023-04-07T15:48:24.614Z,10.60
2023-04-07T15:50:53.268Z,10.60
2023-04-07T15:53:20.274Z,10.50
2023-04-07T15:55:47.239Z,10.40
2023-04-07T15:58:14.209Z,10.30
2023-04-07T16:00:41.486Z,10.20
2023-04-07T16:03:08.654Z,10.10
2023-04-07T16:05:37.049Z,10.10
2023-04-07T16:08:04.025Z,10.10
2023-04-07T16:10:31.119Z,10.10
2023-04-07T16:12:58.025Z,10.10
2023-04-07T16:15:36.777Z,10.10
2023-04-07T16:18:09.009Z,10.00
2023-04-07T16:20:36.124Z,10.10
2023-04-07T16:23:03.121Z,10.10
2023-04-07T16:25:30.897Z,10.20
2023-04-07T16:27:58.114Z,10.20
2023-04-07T16:30:25.308Z,10.20
2023-04-07T16:32:52.677Z,10.20
2023-04-07T16:35:19.947Z,10.10
2023-04-07T16:37:47.145Z,10.00
2023-04-07T16:40:14.323Z,10.00
2023-04-07T16:42:41.385Z,10.00
2023-04-07T16:45:08.957Z,10.00
2023-04-07T16:47:36.834Z,9.90
2023-04-07T16:50:04.767Z,10.00
2023-04-07T16:52:32.332Z,9.90
2023-04-07T16:55:00.959Z,9.90
2023-04-07T16:57:28.092Z,9.80
2023-04-07T16:59:55.180Z,9.90
2023-04-07T17:02:22.615Z,9.90
2023-04-07T17:04:49.936Z,9.90
2023-04-07T17:07:16.943Z,9.80
2023-04-07T17:09:43.880Z,9.90
2023-04-07T17:12:11.053Z,9.90
2023-04-07T17:14:37.984Z,9.90
2023-04-07T17:17:05.022Z,9.90
2023-04-07T17:19:31.971Z,9.90
2023-04-07T17:21:58.893Z,9.80
2023-04-07T17:24:26.042Z,9.80
2023-04-07T17:26:52.998Z,9.80
2023-04-07T17:29:21.076Z,9.90
2023-04-07T17:31:49.911Z,9.80
2023-04-07T17:34:17.138Z,9.70
2023-04-07T17:36:44.087Z,9.70
2023-04-07T17:39:11.209Z,9.60
2023-04-07T17:41:38.541Z,9.60
2023-04-07T17:44:06.012Z,9.70
2023-04-07T17:46:33.140Z,9.70
2023-04-07T17:49:00.454Z,9.60
2023-04-07T17:51:27.725Z,9.60
2023-04-07T17:53:55.032Z,9.60
2023-04-07T17:56:22.356Z,9.50
2023-04-07T17:58:49.301Z,9.60
2023-04-07T18:01:17.099Z,9.60
2023-04-07T18:03:45.159Z,9.60
2023-04-07T18:06:17.037Z,9.50
2023-04-07T18:08:48.227Z,9.60
2023-04-07T18:11:16.749Z,9.60
2023-04-07T18:13:43.699Z,9.60
2023-04-07T18:16:12.070Z,9.50
2023-04-07T18:18:39.299Z,9.50
2023-04-07T18:21:07.209Z,9.40
2023-04-07T18:23:34.751Z,9.40
2023-04-07T18:26:06.464Z,9.40
2023-04-07T18:28:34.299Z,9.40
2023-04-07T18:31:08.439Z,9.40
2023-04-07T18:33:36.626Z,9.40
2023-04-07T18:36:09.717Z,9.40
2023-04-07T18:38:38.052Z,9.40
2023-04-07T18:41:07.329Z,9.40
2023-04-07T18:43:34.560Z,9.40
2023-04-07T18:46:01.592Z,9.40
2023-04-07T18:48:28.724Z,9.30
2023-04-07T18:50:56.492Z,9.30
2023-04-07T18:53:25.285Z,9.30
2023-04-07T18:55:52.344Z,9.30
2023-04-07T18:58:20.072Z,9.30
2023-04-07T19:00:49.907Z,9.40
2023-04-07T19:03:17.458Z,9.30
2023-04-07T19:05:47.419Z,9.30
2023-04-07T19:08:15.956Z,9.20
2023-04-07T19:10:43.679Z,9.30
2023-04-07T19:13:10.687Z,9.20
2023-04-07T19:15:39.343Z,9.20
2023-04-07T19:18:08.423Z,9.20
2023-04-07T19:20:35.507Z,9.20
2023-04-07T19:23:02.733Z,9.20
2023-04-07T19:25:31.220Z,9.10
2023-04-07T19:27:59.016Z,9.10
2023-04-07T19:30:26.200Z,9.10
2023-04-07T19:32:53.567Z,9.10
2023-04-07T19:35:21.044Z,9.10
2023-04-07T19:37:48.468Z,9.10
2023-04-07T19:40:15.698Z,9.10
2023-04-07T19:42:42.931Z,9.10
2023-04-07T19:45:10.497Z,9.10
2023-04-07T19:47:39.024Z,9.10
2023-04-07T19:50:07.029Z,9.00
2023-04-07T19:52:34.168Z,9.00
2023-04-07T19:55:03.777Z,9.00
2023-04-07T19:57:34.097Z,9.00
2023-04-07T20:00:01.068Z,9.10
2023-04-07T20:02:28.277Z,9.10
2023-04-07T20:04:55.606Z,9.10
2023-04-07T20:07:22.839Z,9.00
2023-04-07T20:09:54.747Z,9.00
2023-04-07T20:12:21.680Z,9.00
2023-04-07T20:14:48.724Z,9.00
2023-04-07T20:17:15.693Z,9.00
2023-04-07T20:19:42.685Z,9.00
2023-04-07T20:22:09.776Z,9.00
2023-04-07T20:24:37.006Z,9.00
2023-04-07T20:27:04.034Z,9.00
2023-04-07T20:29:31.205Z,9.00
2023-04-07T20:31:58.150Z,9.00
2023-04-07T20:34:25.385Z,9.00
2023-04-07T20:36:52.326Z,9.00
2023-04-07T20:39:19.295Z,9.00
2023-04-07T20:41:46.458Z,9.00
2023-04-07T20:44:13.359Z,9.00
2023-04-07T20:46:40.689Z,9.00
2023-04-07T20:49:08.144Z,9.00
2023-04-07T20:51:38.306Z,9.00
2023-04-07T20:54:05.740Z,8.90
2023-04-07T20:56:32.658Z,9.00
2023-04-07T20:58:59.574Z,9.00
2023-04-07T21:01:26.616Z,9.00
2023-04-07T21:03:54.276Z,9.00
2023-04-07T21:06:21.589Z,9.00
2023-04-07T21:08:48.778Z,9.00
2023-04-07T21:11:16.187Z,9.00
2023-04-07T21:13:43.257Z,9.00
2023-04-07T21:16:10.812Z,9.00
2023-04-07T21:18:37.830Z,9.00
2023-04-07T21:21:05.125Z,9.00
2023-04-07T21:23:32.110Z,9.00
2023-04-07T21:26:03.428Z,9.00
2023-04-07T21:28:30.578Z,9.00
2023-04-07T21:30:58.133Z,9.00
2023-04-07T21:33:25.521Z,9.00
2023-04-07T21:35:52.752Z,9.00
2023-04-07T21:38:19.985Z,9.00
2023-04-07T21:40:46.933Z,9.00
2023-04-07T21:43:13.851Z,9.00
2023-04-07T21:45:41.129Z,9.00
2023-04-07T21:48:08.243Z,9.00
2023-04-07T21:50:36.455Z,9.00
2023-04-07T21:53:03.536Z,9.00
2023-04-07T21:55:30.800Z,8.90
2023-04-07T21:57:58.200Z,9.00
2023-04-07T22:00:25.280Z,9.00
2023-04-07T22:02:52.545Z,8.90
2023-04-07T22:05:21.083Z,8.90
2023-04-07T22:07:48.499Z,8.80
2023-04-07T22:10:15.670Z,8.80
2023-04-07T22:12:42.794Z,8.80
2023-04-07T22:15:11.721Z,8.80
2023-04-07T22:17:40.009Z,8.80
2023-04-07T22:20:10.119Z,8.80
2023-04-07T22:22:37.475Z,8.80
2023-04-07T22:25:05.172Z,8.80
2023-04-07T22:27:32.289Z,8.80
2023-04-07T22:29:59.209Z,8.80
2023-04-07T22:32:26.271Z,8.80
2023-04-07T22:34:53.349Z,8.80
2023-04-07T22:37:20.419Z,8.80
2023-04-07T22:39:47.537Z,8.80
2023-04-07T22:42:14.506Z,8.80
2023-04-07T22:44:41.417Z,8.80
2023-04-07T22:47:09.083Z,8.80
2023-04-07T22:49:36.253Z,8.80
2023-04-07T22:52:03.440Z,8.80
2023-04-07T22:54:30.646Z,8.80
2023-04-07T22:56:57.698Z,8.70
2023-04-07T22:59:25.959Z,8.70
2023-04-07T23:01:53.185Z,8.70
2023-04-07T23:04:22.480Z,8.80
2023-04-07T23:06:49.436Z,8.70
2023-04-07T23:09:16.752Z,8.80
2023-04-07T23:11:47.295Z,8.80
2023-04-07T23:14:14.842Z,8.70
2023-04-07T23:16:41.792Z,8.70
2023-04-07T23:19:11.724Z,8.70
2023-04-07T23:21:39.726Z,8.70
2023-04-07T23:24:06.801Z,8.70
2023-04-07T23:26:33.807Z,8.70
2023-04-07T23:29:00.882Z,8.70
2023-04-07T23:31:28.313Z,8.70
2023-04-07T23:33:55.391Z,8.60
2023-04-07T23:36:22.615Z,8.60
2023-04-07T23:38:49.622Z,8.60
2023-04-07T23:41:16.735Z,8.70
2023-04-07T23:43:43.708Z,8.70
2023-04-07T23:46:10.700Z,8.70
2023-04-07T23:48:37.639Z,8.70
2023-04-07T23:51:05.282Z,8.70
2023-04-07T23:53:32.211Z,8.70
2023-04-07T23:55:59.264Z,8.70
2023-04-07T23:58:26.271Z,8.70
